BRU weather

Brussels Airport
Brussels, Brussels-Capital Region, Belgium

Public forecast

Using degrees Celsius for public forecast. Weather courtesy of forecast.io.

METAR (pilot weather report)

Retrieved 2018/04/22 04:20 UTC (0 seconds ago):

EBBR 220420Z VRB01KT CAVOK 11/08 Q1013 NOSIG

TAF (pilot weather forecast)

Forecast is more than 12 hours old.

Retrieved 2018/04/21 00:28 UTC (1 day ago):

TAF EBBR 212320Z 2200/2306 VRB03KT 8000 NSC PROB30 TEMPO 2205/2208 VRB15G25KT 4000 SHRA -TSRA BECMG 2210/2212 22010KT PROB30 TEMPO 2211/2219 4000 SHRA -TSRA PROB30 TEMPO 2302/2305 4000 RA SHRA BKN014